Time;durP1;ratioP1;P1;durP2;ratioP2;P2;SDS_P1;SDS_P2;PMS_P1;PMS_P2;Temp;Humidity;BMP_temperature;BMP_pressure;BME280_temperature;BME280_humidity;BME280_pressure;Samples;Min_cycle;Max_cycle;Signal;HPM_P1;HPM_P2
2023/08/22 00:00:07;;;;;;;;;;;19.40;83.70;;;;;;5003793;28;20046;-86
2023/08/22 00:02:33;;;;;;;;;;;19.40;84.10;;;;;;4992155;28;19984;-86
2023/08/22 00:04:58;;;;;;;;;;;19.50;84.10;;;;;;4993470;28;19917;-86
2023/08/22 00:07:24;;;;;;;;;;;19.50;84.10;;;;;;4995357;28;20032;-86
2023/08/22 00:09:49;;;;;;;;;;;19.60;83.90;;;;;;5016456;28;19937;-85
2023/08/22 00:12:15;;;;;;;;;;;19.40;84.30;;;;;;5014724;28;19928;-86
2023/08/22 00:14:40;;;;;;;;;;;19.40;84.50;;;;;;4997181;28;19960;-86
2023/08/22 00:17:08;;;;;;;;;;;19.50;84.20;;;;;;4993981;28;20002;-86
2023/08/22 00:19:34;;;;;;;;;;;19.40;85.00;;;;;;4989446;28;19918;-86
2023/08/22 00:21:59;;;;;;;;;;;19.30;85.00;;;;;;5005927;28;19940;-86
2023/08/22 00:24:25;;;;;;;;;;;19.30;85.20;;;;;;4994689;28;19918;-86
2023/08/22 00:26:50;;;;;;;;;;;19.40;84.80;;;;;;4996129;28;19973;-86
2023/08/22 00:29:16;;;;;;;;;;;19.30;84.50;;;;;;4995594;28;19910;-86
2023/08/22 00:31:41;;;;;;;;;;;19.20;84.50;;;;;;4993514;28;19960;-86
2023/08/22 00:34:06;;;;;;;;;;;19.10;84.70;;;;;;4992877;28;19910;-87
2023/08/22 00:36:32;;;;;;;;;;;19.20;84.70;;;;;;5008291;28;19917;-86
2023/08/22 00:38:57;;;;;;;;;;;19.20;84.60;;;;;;4994154;28;20394;-86
2023/08/22 00:41:23;;;;;;;;;;;19.20;84.60;;;;;;4993864;28;20400;-86
2023/08/22 00:43:48;;;;;;;;;;;19.10;84.90;;;;;;5009948;28;20384;-86
2023/08/22 00:46:14;;;;;;;;;;;19.30;84.40;;;;;;4994705;28;20304;-86
2023/08/22 00:48:39;;;;;;;;;;;19.20;84.40;;;;;;4993225;28;19913;-86
2023/08/22 00:51:05;;;;;;;;;;;19.20;84.50;;;;;;4993450;28;19917;-86
2023/08/22 00:53:32;;;;;;;;;;;19.20;84.60;;;;;;4991737;28;19925;-87
2023/08/22 00:55:57;;;;;;;;;;;19.20;84.50;;;;;;4992327;28;19909;-86
2023/08/22 00:58:23;;;;;;;;;;;19.20;84.60;;;;;;5007300;28;19974;-86
2023/08/22 01:00:48;;;;;;;;;;;19.10;84.80;;;;;;4993518;28;19909;-86
2023/08/22 01:03:14;;;;;;;;;;;19.10;85.30;;;;;;4990475;28;19914;-87
2023/08/22 01:05:42;;;;;;;;;;;19.00;85.40;;;;;;4990049;28;20550;-86
2023/08/22 01:08:14;;;;;;;;;;;19.00;85.40;;;;;;4992716;28;19914;-86
2023/08/22 01:10:42;;;;;;;;;;;19.00;85.60;;;;;;4991455;28;19914;-86
2023/08/22 01:13:09;;;;;;;;;;;19.00;85.90;;;;;;4991184;28;19992;-86
2023/08/22 01:15:35;;;;;;;;;;;19.00;86.10;;;;;;4988650;28;19943;-86
2023/08/22 01:18:03;;;;;;;;;;;19.00;85.90;;;;;;4990490;28;19953;-87
2023/08/22 01:20:29;;;;;;;;;;;19.00;86.00;;;;;;4989739;28;19924;-86
2023/08/22 01:22:55;;;;;;;;;;;19.00;85.50;;;;;;4991606;28;19914;-87
2023/08/22 01:25:20;;;;;;;;;;;19.00;85.70;;;;;;4991789;28;19988;-86
2023/08/22 01:27:49;;;;;;;;;;;18.90;85.70;;;;;;4996319;28;19914;-86
2023/08/22 01:30:22;;;;;;;;;;;18.90;86.00;;;;;;4993030;28;19921;-87
2023/08/22 01:32:49;;;;;;;;;;;19.00;85.70;;;;;;4990591;28;20371;-86
2023/08/22 01:35:16;;;;;;;;;;;19.00;85.70;;;;;;4990654;28;19913;-86
2023/08/22 01:37:42;;;;;;;;;;;19.00;85.40;;;;;;4992098;28;19914;-86
2023/08/22 01:40:08;;;;;;;;;;;19.00;84.80;;;;;;5012640;28;20449;-85
2023/08/22 01:42:34;;;;;;;;;;;19.00;84.40;;;;;;5003595;28;19913;-86
2023/08/22 01:44:59;;;;;;;;;;;19.00;84.60;;;;;;4993246;28;19968;-86
2023/08/22 01:47:24;;;;;;;;;;;19.00;84.60;;;;;;4991445;28;19917;-86
2023/08/22 01:49:50;;;;;;;;;;;19.10;84.70;;;;;;4990924;28;19925;-86
2023/08/22 01:52:15;;;;;;;;;;;19.00;84.50;;;;;;5006240;28;19989;-86
2023/08/22 01:54:41;;;;;;;;;;;19.00;85.00;;;;;;4988857;28;20320;-85
2023/08/22 01:57:06;;;;;;;;;;;19.00;85.40;;;;;;4991987;28;19913;-86
2023/08/22 01:59:32;;;;;;;;;;;19.00;85.50;;;;;;5010257;28;19922;-86
2023/08/22 02:01:57;;;;;;;;;;;19.00;86.00;;;;;;5012134;28;19925;-86
2023/08/22 02:04:23;;;;;;;;;;;19.00;86.00;;;;;;5002336;28;19929;-86
2023/08/22 02:06:48;;;;;;;;;;;19.00;86.00;;;;;;4989790;28;20414;-86
2023/08/22 02:09:13;;;;;;;;;;;19.10;86.10;;;;;;4994706;28;19918;-86
2023/08/22 02:11:39;;;;;;;;;;;19.00;86.00;;;;;;4991194;28;19918;-86
2023/08/22 02:14:05;;;;;;;;;;;19.10;86.20;;;;;;4992340;28;20347;-86
2023/08/22 02:16:30;;;;;;;;;;;19.10;86.20;;;;;;4988641;28;20663;-86
2023/08/22 02:18:55;;;;;;;;;;;19.10;85.90;;;;;;4987646;23;20289;-91
2023/08/22 02:21:21;;;;;;;;;;;19.10;85.30;;;;;;4969498;28;19910;-91
2023/08/22 02:23:46;;;;;;;;;;;19.20;84.70;;;;;;4971517;28;20009;-89
2023/08/22 02:26:12;;;;;;;;;;;19.20;84.80;;;;;;4970329;28;20376;-89
2023/08/22 02:28:37;;;;;;;;;;;19.30;84.70;;;;;;4965997;28;20048;-88
2023/08/22 02:31:03;;;;;;;;;;;19.30;84.20;;;;;;4970520;28;19921;-89
2023/08/22 02:33:29;;;;;;;;;;;19.30;84.40;;;;;;4971372;28;19996;-90
2023/08/22 02:35:54;;;;;;;;;;;19.20;84.50;;;;;;4976650;28;19934;-88
2023/08/22 02:38:20;;;;;;;;;;;19.10;84.80;;;;;;4986292;28;19978;-89
2023/08/22 02:40:45;;;;;;;;;;;19.20;84.90;;;;;;4979742;28;19956;-89
2023/08/22 02:43:11;;;;;;;;;;;19.20;84.60;;;;;;4977287;28;19925;-89
2023/08/22 02:45:37;;;;;;;;;;;19.20;84.70;;;;;;4978228;28;19922;-89
2023/08/22 02:48:03;;;;;;;;;;;19.10;84.70;;;;;;4977504;28;19911;-89
2023/08/22 02:50:28;;;;;;;;;;;19.10;84.70;;;;;;4974684;28;19918;-89
2023/08/22 02:52:54;;;;;;;;;;;19.10;84.70;;;;;;4973671;28;19910;-88
2023/08/22 02:55:19;;;;;;;;;;;19.10;84.70;;;;;;4973748;28;19916;-89
2023/08/22 02:57:45;;;;;;;;;;;19.10;84.80;;;;;;4975900;28;19910;-90
2023/08/22 03:00:11;;;;;;;;;;;19.00;85.20;;;;;;4974728;28;19914;-89
2023/08/22 03:02:37;;;;;;;;;;;19.00;85.50;;;;;;4975040;28;20387;-89
2023/08/22 03:05:04;;;;;;;;;;;19.00;85.60;;;;;;4975342;28;19918;-89
2023/08/22 03:07:29;;;;;;;;;;;18.90;86.00;;;;;;4972707;28;19969;-90
2023/08/22 03:09:55;;;;;;;;;;;18.80;86.30;;;;;;4970643;28;19918;-89
2023/08/22 03:12:20;;;;;;;;;;;18.70;86.50;;;;;;4970081;28;19921;-90
2023/08/22 03:14:46;;;;;;;;;;;18.70;86.60;;;;;;4976058;28;19968;-90
2023/08/22 03:17:12;;;;;;;;;;;18.60;86.60;;;;;;4972893;28;20450;-90
2023/08/22 03:19:37;;;;;;;;;;;18.70;86.60;;;;;;4972348;28;19921;-90
2023/08/22 03:22:03;;;;;;;;;;;18.70;86.50;;;;;;4974827;28;20411;-89
2023/08/22 03:24:28;;;;;;;;;;;18.80;86.20;;;;;;4973973;28;20013;-90
2023/08/22 03:26:53;;;;;;;;;;;18.70;86.20;;;;;;4973338;28;19973;-88
2023/08/22 03:29:19;;;;;;;;;;;18.80;86.00;;;;;;4974471;28;19910;-90
2023/08/22 03:31:45;;;;;;;;;;;18.90;86.10;;;;;;4973818;28;19921;-90
2023/08/22 03:34:10;;;;;;;;;;;18.80;86.20;;;;;;4974039;28;19918;-90
2023/08/22 03:36:36;;;;;;;;;;;18.70;86.50;;;;;;4973907;28;19918;-90
2023/08/22 03:39:01;;;;;;;;;;;18.70;86.30;;;;;;4972067;28;19918;-90
2023/08/22 03:41:27;;;;;;;;;;;18.70;86.00;;;;;;4975757;28;19918;-88
2023/08/22 03:43:52;;;;;;;;;;;18.70;85.70;;;;;;4974789;28;19910;-89
2023/08/22 03:46:18;;;;;;;;;;;18.80;85.50;;;;;;4971678;28;19922;-90
2023/08/22 03:48:43;;;;;;;;;;;18.70;85.50;;;;;;4970722;28;20276;-90
2023/08/22 03:51:08;;;;;;;;;;;18.70;85.70;;;;;;4970423;28;19920;-90
2023/08/22 03:53:34;;;;;;;;;;;18.70;86.20;;;;;;4971341;28;20430;-89
2023/08/22 03:56:00;;;;;;;;;;;18.70;85.80;;;;;;4978901;28;19921;-90
2023/08/22 03:58:25;;;;;;;;;;;18.60;86.20;;;;;;4968566;28;19977;-88
2023/08/22 04:00:53;;;;;;;;;;;18.50;86.40;;;;;;4971784;28;19918;-90
2023/08/22 04:03:18;;;;;;;;;;;18.50;86.50;;;;;;4968191;28;19922;-87
2023/08/22 04:05:44;;;;;;;;;;;18.50;86.70;;;;;;4970448;28;20364;-89
2023/08/22 04:08:09;;;;;;;;;;;18.50;86.60;;;;;;4968737;28;19934;-88
2023/08/22 04:10:35;;;;;;;;;;;18.40;86.90;;;;;;4967764;28;19968;-90
2023/08/22 04:13:00;;;;;;;;;;;18.50;86.60;;;;;;4973188;28;19914;-89
2023/08/22 04:15:26;;;;;;;;;;;18.50;86.10;;;;;;4971171;28;19917;-90
2023/08/22 04:17:51;;;;;;;;;;;18.50;86.00;;;;;;4974141;28;19925;-90
2023/08/22 04:20:16;;;;;;;;;;;18.40;86.20;;;;;;4982053;28;19919;-89
2023/08/22 04:22:42;;;;;;;;;;;18.40;86.40;;;;;;4967515;28;20440;-91
2023/08/22 04:25:11;;;;;;;;;;;18.30;86.40;;;;;;4971583;28;19926;-90
2023/08/22 04:27:37;;;;;;;;;;;18.50;85.80;;;;;;4973635;28;19914;-90
2023/08/22 04:30:03;;;;;;;;;;;18.40;86.00;;;;;;4974264;28;19918;-88
2023/08/22 04:32:28;;;;;;;;;;;18.40;85.80;;;;;;4970393;28;19977;-89
2023/08/22 04:34:54;;;;;;;;;;;18.30;85.90;;;;;;4976541;28;19917;-89
2023/08/22 04:37:19;;;;;;;;;;;18.30;86.20;;;;;;4972041;28;19950;-88
2023/08/22 04:39:45;;;;;;;;;;;18.30;86.30;;;;;;4973757;28;19973;-87
2023/08/22 04:42:10;;;;;;;;;;;18.30;86.60;;;;;;4971666;28;20005;-87
2023/08/22 04:44:35;;;;;;;;;;;18.30;86.50;;;;;;4968707;28;19997;-88
2023/08/22 04:47:01;;;;;;;;;;;18.40;86.30;;;;;;4971348;28;19918;-88
2023/08/22 04:49:27;;;;;;;;;;;18.30;86.40;;;;;;4972776;28;19918;-93
2023/08/22 04:51:52;;;;;;;;;;;18.40;86.50;;;;;;4972686;28;19914;-89
2023/08/22 04:54:20;;;;;;;;;;;18.40;86.20;;;;;;4974253;28;20399;-91
2023/08/22 04:56:45;;;;;;;;;;;18.50;86.20;;;;;;4972234;28;20363;-91
2023/08/22 04:59:11;;;;;;;;;;;18.50;86.40;;;;;;4972711;28;19969;-89
2023/08/22 05:01:36;;;;;;;;;;;18.50;86.60;;;;;;4974230;28;20375;-90
2023/08/22 05:04:02;;;;;;;;;;;18.50;86.70;;;;;;4971409;28;19922;-89
2023/08/22 05:06:27;;;;;;;;;;;18.60;86.50;;;;;;4965867;28;19919;-90
2023/08/22 05:08:53;;;;;;;;;;;18.70;86.30;;;;;;4967296;28;19933;-94
2023/08/22 05:11:19;;;;;;;;;;;18.80;86.10;;;;;;4975394;28;19914;-92
2023/08/22 05:13:44;;;;;;;;;;;18.80;86.00;;;;;;4975056;28;19924;-93
2023/08/22 05:16:10;;;;;;;;;;;18.80;86.20;;;;;;4967018;28;20404;-90
2023/08/22 05:18:35;;;;;;;;;;;18.80;86.00;;;;;;4966159;28;19922;-90
2023/08/22 05:21:00;;;;;;;;;;;18.60;86.70;;;;;;4975612;28;19968;-86
2023/08/22 05:23:26;;;;;;;;;;;18.60;86.70;;;;;;4965105;28;19918;-89
2023/08/22 05:25:52;;;;;;;;;;;18.60;86.60;;;;;;4968687;28;19973;-88
2023/08/22 05:28:17;;;;;;;;;;;18.60;86.40;;;;;;4965875;28;19923;-86
2023/08/22 05:30:43;;;;;;;;;;;18.60;86.40;;;;;;4960331;28;19914;-86
2023/08/22 05:33:09;;;;;;;;;;;18.60;86.40;;;;;;4967651;28;19954;-88
2023/08/22 05:35:34;;;;;;;;;;;18.60;86.50;;;;;;4965729;28;19921;-86
2023/08/22 05:38:00;;;;;;;;;;;18.70;86.40;;;;;;4969778;28;19914;-87
2023/08/22 05:40:25;;;;;;;;;;;18.60;86.40;;;;;;4969122;28;19932;-87
2023/08/22 05:42:55;;;;;;;;;;;18.60;86.60;;;;;;4969595;28;19914;-88
2023/08/22 05:45:20;;;;;;;;;;;18.60;86.70;;;;;;4971767;28;20379;-87
2023/08/22 05:47:46;;;;;;;;;;;18.70;86.70;;;;;;4971942;28;19920;-88
2023/08/22 05:50:11;;;;;;;;;;;18.80;86.10;;;;;;4967226;28;19921;-87
2023/08/22 05:52:37;;;;;;;;;;;18.80;86.30;;;;;;4968725;28;19953;-88
2023/08/22 05:55:02;;;;;;;;;;;18.80;86.40;;;;;;4971377;28;20008;-87
2023/08/22 05:57:29;;;;;;;;;;;18.90;86.30;;;;;;4971431;28;19965;-87
2023/08/22 05:59:54;;;;;;;;;;;18.90;86.00;;;;;;4971511;28;19918;-87
2023/08/22 06:02:20;;;;;;;;;;;19.10;85.50;;;;;;4971389;28;19973;-87
2023/08/22 06:04:46;;;;;;;;;;;19.20;85.40;;;;;;4964774;28;20000;-87
2023/08/22 06:07:11;;;;;;;;;;;19.30;85.30;;;;;;4962987;28;19922;-90
2023/08/22 06:09:37;;;;;;;;;;;19.50;84.60;;;;;;4970676;28;19965;-90
2023/08/22 06:12:03;;;;;;;;;;;19.40;84.60;;;;;;4972761;28;19914;-89
2023/08/22 06:14:29;;;;;;;;;;;19.40;84.70;;;;;;4964788;28;19953;-91
2023/08/22 06:16:54;;;;;;;;;;;19.40;84.60;;;;;;4969951;28;19910;-91
2023/08/22 06:19:20;;;;;;;;;;;19.40;84.50;;;;;;4977163;28;19918;-90
2023/08/22 06:21:45;;;;;;;;;;;19.40;84.40;;;;;;4992101;28;19968;-91
2023/08/22 06:24:11;;;;;;;;;;;19.50;84.10;;;;;;4979746;28;19926;-88
2023/08/22 06:26:36;;;;;;;;;;;19.60;83.60;;;;;;4981200;28;19922;-90
2023/08/22 06:29:02;;;;;;;;;;;19.60;83.40;;;;;;4979159;28;20372;-90
2023/08/22 06:31:27;;;;;;;;;;;19.70;83.10;;;;;;4980961;28;19965;-90
2023/08/22 06:33:53;;;;;;;;;;;19.60;83.40;;;;;;4973636;28;19917;-89
2023/08/22 06:36:18;;;;;;;;;;;19.70;83.60;;;;;;4975813;28;20376;-89
2023/08/22 06:38:44;;;;;;;;;;;19.70;83.80;;;;;;4971532;28;19915;-88
2023/08/22 06:41:09;;;;;;;;;;;19.80;83.80;;;;;;4982287;28;19914;-90
2023/08/22 06:43:35;;;;;;;;;;;20.00;83.40;;;;;;4973840;28;20013;-90
2023/08/22 06:46:00;;;;;;;;;;;20.10;83.10;;;;;;4972206;28;19918;-89
2023/08/22 06:48:26;;;;;;;;;;;20.00;83.20;;;;;;4973556;28;20032;-90
2023/08/22 06:50:52;;;;;;;;;;;20.00;83.50;;;;;;4967819;28;19914;-89
2023/08/22 06:53:18;;;;;;;;;;;20.10;83.10;;;;;;4985454;28;19934;-89
2023/08/22 06:55:47;;;;;;;;;;;20.10;83.40;;;;;;5004503;28;19921;-89
2023/08/22 06:58:13;;;;;;;;;;;20.10;83.60;;;;;;4978143;28;19923;-87
2023/08/22 07:00:38;;;;;;;;;;;20.20;83.40;;;;;;4973142;28;20307;-90
2023/08/22 07:03:07;;;;;;;;;;;20.30;83.20;;;;;;4974712;28;20429;-90
2023/08/22 07:05:41;;;;;;;;;;;20.30;83.30;;;;;;4974842;28;19941;-90
2023/08/22 07:08:09;;;;;;;;;;;20.40;82.70;;;;;;4972180;28;19914;-89
2023/08/22 07:10:35;;;;;;;;;;;20.50;82.50;;;;;;4975359;28;19926;-90
2023/08/22 07:13:01;;;;;;;;;;;20.60;82.40;;;;;;4975079;28;20284;-90
2023/08/22 07:15:26;;;;;;;;;;;20.70;82.10;;;;;;4966878;28;19918;-90
2023/08/22 07:17:52;;;;;;;;;;;20.80;81.50;;;;;;4969411;28;19964;-89
2023/08/22 07:20:17;;;;;;;;;;;21.00;80.00;;;;;;4971164;28;19924;-89
2023/08/22 07:22:45;;;;;;;;;;;21.10;79.70;;;;;;4975319;28;20409;-89
2023/08/22 07:25:11;;;;;;;;;;;21.10;79.40;;;;;;4974024;28;19957;-90
2023/08/22 07:27:36;;;;;;;;;;;21.10;78.70;;;;;;4967585;28;19964;-91
2023/08/22 07:30:03;;;;;;;;;;;21.20;78.70;;;;;;4973765;28;20339;-90
2023/08/22 07:32:29;;;;;;;;;;;21.30;78.60;;;;;;4974265;28;19921;-90
2023/08/22 07:35:00;;;;;;;;;;;21.40;78.30;;;;;;4973893;28;19918;-90
2023/08/22 07:37:26;;;;;;;;;;;21.40;78.00;;;;;;4972719;28;20284;-91
2023/08/22 07:39:52;;;;;;;;;;;21.40;78.30;;;;;;4971750;28;19933;-91
2023/08/22 07:42:17;;;;;;;;;;;21.40;77.80;;;;;;4970455;28;19925;-89
2023/08/22 07:44:43;;;;;;;;;;;21.40;77.70;;;;;;4978886;28;20133;-92
2023/08/22 07:47:08;;;;;;;;;;;21.50;77.60;;;;;;4974344;28;19922;-95
2023/08/22 07:49:34;;;;;;;;;;;21.60;77.40;;;;;;4967852;28;19922;-90
2023/08/22 07:52:00;;;;;;;;;;;21.60;76.50;;;;;;4973630;28;19953;-88
2023/08/22 07:54:28;;;;;;;;;;;21.60;76.50;;;;;;4974069;28;19910;-93
2023/08/22 07:56:54;;;;;;;;;;;21.80;77.60;;;;;;4970904;28;19929;-94
2023/08/22 07:59:20;;;;;;;;;;;21.70;77.70;;;;;;4975201;28;19918;-93
2023/08/22 08:01:49;;;;;;;;;;;21.80;74.70;;;;;;4972520;28;20369;-93
2023/08/22 08:04:14;;;;;;;;;;;21.90;74.50;;;;;;4968428;28;19942;-96
2023/08/22 08:06:40;;;;;;;;;;;22.00;74.30;;;;;;4962928;28;20387;-93
2023/08/22 08:09:05;;;;;;;;;;;22.10;74.20;;;;;;4970467;28;19949;-93
2023/08/22 08:11:31;;;;;;;;;;;22.10;75.60;;;;;;4977182;28;19917;-93
2023/08/22 08:14:01;;;;;;;;;;;22.10;74.40;;;;;;4974672;28;19918;-93
2023/08/22 08:16:26;;;;;;;;;;;22.20;74.00;;;;;;4973740;28;19918;-94
2023/08/22 08:18:52;;;;;;;;;;;22.10;73.90;;;;;;5005406;23;20007;-84
2023/08/22 08:21:18;;;;;;;;;;;22.40;72.80;;;;;;4994971;28;19914;-84
2023/08/22 08:23:44;;;;;;;;;;;22.50;70.90;;;;;;4997723;28;19937;-83
2023/08/22 08:26:10;;;;;;;;;;;22.80;68.60;;;;;;4995108;28;19983;-85
2023/08/22 08:28:36;;;;;;;;;;;23.20;68.10;;;;;;4992878;28;19921;-83
2023/08/22 08:31:02;;;;;;;;;;;23.20;68.10;;;;;;4988439;28;19961;-83
2023/08/22 08:33:27;;;;;;;;;;;23.10;69.10;;;;;;4997277;28;20289;-83
2023/08/22 08:35:53;;;;;;;;;;;23.40;68.90;;;;;;4995244;28;20005;-83
2023/08/22 08:38:18;;;;;;;;;;;23.60;68.40;;;;;;4990383;28;20214;-83
2023/08/22 08:40:45;;;;;;;;;;;23.30;70.20;;;;;;4995925;28;19910;-83
2023/08/22 08:43:11;;;;;;;;;;;23.30;70.10;;;;;;4993859;28;19914;-83
2023/08/22 08:45:37;;;;;;;;;;;23.30;70.70;;;;;;5000041;28;19924;-82
2023/08/22 08:48:03;;;;;;;;;;;23.20;70.10;;;;;;5003222;28;19916;-81
2023/08/22 08:50:30;;;;;;;;;;;23.50;68.00;;;;;;4994507;28;19957;-81
2023/08/22 08:52:55;;;;;;;;;;;23.50;67.60;;;;;;4991430;28;19920;-82
2023/08/22 08:55:21;;;;;;;;;;;23.60;67.90;;;;;;4990120;28;19969;-83
2023/08/22 08:57:47;;;;;;;;;;;23.90;64.70;;;;;;4997340;28;20363;-83
2023/08/22 09:00:14;;;;;;;;;;;24.10;63.60;;;;;;4992322;28;20498;-82
2023/08/22 09:02:39;;;;;;;;;;;24.10;62.70;;;;;;4995492;28;19925;-83
2023/08/22 09:05:05;;;;;;;;;;;24.00;62.90;;;;;;4989057;28;19914;-83
2023/08/22 09:07:30;;;;;;;;;;;24.10;61.30;;;;;;4998514;28;20028;-83
2023/08/22 09:09:57;;;;;;;;;;;24.10;61.20;;;;;;4997254;28;19913;-83
2023/08/22 09:12:30;;;;;;;;;;;24.30;60.70;;;;;;4994468;28;19918;-82
2023/08/22 09:14:56;;;;;;;;;;;24.30;61.60;;;;;;4995069;28;19921;-82
2023/08/22 09:17:21;;;;;;;;;;;24.50;61.90;;;;;;4992375;28;19917;-82
2023/08/22 09:19:47;;;;;;;;;;;24.50;60.60;;;;;;4996639;28;20420;-83
2023/08/22 09:22:13;;;;;;;;;;;24.50;61.90;;;;;;4996198;28;20509;-82
2023/08/22 09:24:39;;;;;;;;;;;24.60;61.40;;;;;;4997478;28;19937;-82
2023/08/22 09:27:05;;;;;;;;;;;24.40;62.30;;;;;;4995361;28;19922;-81
2023/08/22 09:29:32;;;;;;;;;;;24.50;62.20;;;;;;4996313;28;19918;-82
2023/08/22 09:32:03;;;;;;;;;;;24.70;60.80;;;;;;4998907;28;20042;-82
2023/08/22 09:34:29;;;;;;;;;;;24.60;61.80;;;;;;4995317;28;19993;-82
2023/08/22 09:36:54;;;;;;;;;;;24.60;61.50;;;;;;4992442;28;19942;-82
2023/08/22 09:39:21;;;;;;;;;;;24.80;60.40;;;;;;5001340;28;19916;-82
2023/08/22 09:41:50;;;;;;;;;;;24.80;61.10;;;;;;5003644;28;20278;-81
2023/08/22 09:44:15;;;;;;;;;;;25.10;61.60;;;;;;4994227;28;20539;-82
2023/08/22 09:46:42;;;;;;;;;;;25.10;59.70;;;;;;4999545;28;19917;-82
2023/08/22 09:49:11;;;;;;;;;;;25.20;59.50;;;;;;5007078;28;19918;-81
2023/08/22 09:51:37;;;;;;;;;;;25.30;59.50;;;;;;4998263;28;19922;-82
2023/08/22 09:54:03;;;;;;;;;;;25.40;59.10;;;;;;5000701;28;19918;-82
2023/08/22 09:56:31;;;;;;;;;;;25.30;58.00;;;;;;4996496;28;19960;-81
2023/08/22 09:58:56;;;;;;;;;;;25.50;56.70;;;;;;4988298;28;19921;-81
2023/08/22 10:01:22;;;;;;;;;;;25.30;57.30;;;;;;4996209;28;19914;-81
2023/08/22 10:03:48;;;;;;;;;;;25.20;57.10;;;;;;4996566;28;19914;-82
2023/08/22 10:06:14;;;;;;;;;;;25.30;57.50;;;;;;4995596;28;19914;-81
2023/08/22 10:08:46;;;;;;;;;;;25.50;57.10;;;;;;4985917;28;19997;-82
2023/08/22 10:11:13;;;;;;;;;;;25.50;57.80;;;;;;4998963;28;19956;-81
2023/08/22 10:13:39;;;;;;;;;;;25.60;57.80;;;;;;4996832;28;19921;-80
2023/08/22 10:16:05;;;;;;;;;;;25.70;57.40;;;;;;4994485;28;19922;-81
2023/08/22 10:18:31;;;;;;;;;;;25.70;56.20;;;;;;4992364;28;19914;-82
2023/08/22 10:20:56;;;;;;;;;;;25.80;56.50;;;;;;4995872;28;19978;-82
2023/08/22 10:23:41;;;;;;;;;;;25.80;56.50;;;;;;5004187;28;19910;-81
2023/08/22 10:26:06;;;;;;;;;;;25.80;58.10;;;;;;5004436;28;19917;-81
2023/08/22 10:28:40;;;;;;;;;;;26.00;57.40;;;;;;5003635;28;19925;-81
2023/08/22 10:31:06;;;;;;;;;;;26.10;57.60;;;;;;5001891;28;19913;-81
2023/08/22 10:33:32;;;;;;;;;;;26.10;55.90;;;;;;5003227;28;20000;-81
2023/08/22 10:36:05;;;;;;;;;;;26.30;54.10;;;;;;5007332;28;19953;-82
2023/08/22 10:38:50;;;;;;;;;;;26.20;53.70;;;;;;5005206;28;19917;-82
2023/08/22 10:41:15;;;;;;;;;;;26.20;53.00;;;;;;5004591;28;19953;-82
2023/08/22 10:43:40;;;;;;;;;;;26.20;53.60;;;;;;5006800;28;19910;-80
2023/08/22 10:46:06;;;;;;;;;;;26.20;54.20;;;;;;5003767;28;19937;-80
2023/08/22 10:48:31;;;;;;;;;;;26.10;52.70;;;;;;5003059;28;19929;-82
2023/08/22 10:51:07;;;;;;;;;;;26.00;52.30;;;;;;5006619;28;19918;-82
2023/08/22 10:53:46;;;;;;;;;;;25.90;53.40;;;;;;5002837;28;20093;-83
2023/08/22 10:56:18;;;;;;;;;;;25.90;54.70;;;;;;5002566;28;20000;-80
2023/08/22 10:58:43;;;;;;;;;;;26.00;54.50;;;;;;5003011;28;20001;-83
2023/08/22 11:01:10;;;;;;;;;;;26.00;54.50;;;;;;5006068;28;20286;-83
2023/08/22 11:03:35;;;;;;;;;;;25.90;55.10;;;;;;5002993;28;19914;-81
2023/08/22 11:06:03;;;;;;;;;;;26.00;55.40;;;;;;5008220;28;20421;-82
2023/08/22 11:08:29;;;;;;;;;;;26.00;56.40;;;;;;5005276;28;20314;-82
2023/08/22 11:10:56;;;;;;;;;;;26.10;56.20;;;;;;4998362;28;19952;-82
2023/08/22 11:13:34;;;;;;;;;;;26.10;55.80;;;;;;4998409;28;19929;-87
2023/08/22 11:16:00;;;;;;;;;;;26.00;54.80;;;;;;4998072;28;20044;-86
2023/08/22 11:18:27;;;;;;;;;;;26.00;55.70;;;;;;4992541;28;19917;-88
2023/08/22 11:20:54;;;;;;;;;;;25.80;56.00;;;;;;4989593;28;19918;-85
2023/08/22 11:23:19;;;;;;;;;;;25.80;55.80;;;;;;4998030;28;20334;-87
2023/08/22 11:25:45;;;;;;;;;;;25.80;55.50;;;;;;4995189;28;19984;-86
2023/08/22 11:28:10;;;;;;;;;;;25.70;56.60;;;;;;4999417;28;19914;-85
2023/08/22 11:30:35;;;;;;;;;;;25.80;56.80;;;;;;4998748;28;19998;-86
2023/08/22 11:33:01;;;;;;;;;;;25.80;56.80;;;;;;4994999;28;19941;-87
2023/08/22 11:35:26;;;;;;;;;;;26.00;55.90;;;;;;4994683;28;20322;-85
2023/08/22 11:37:52;;;;;;;;;;;26.00;54.80;;;;;;4988358;28;19936;-86
2023/08/22 11:40:17;;;;;;;;;;;26.00;55.80;;;;;;4990896;28;19930;-86
2023/08/22 11:42:46;;;;;;;;;;;25.90;54.60;;;;;;4994549;28;20009;-85
2023/08/22 11:45:17;;;;;;;;;;;25.80;56.10;;;;;;4997225;28;19960;-86
2023/08/22 11:47:46;;;;;;;;;;;25.70;56.80;;;;;;4995278;28;20001;-86
2023/08/22 11:50:16;;;;;;;;;;;25.80;56.40;;;;;;4992159;28;19914;-85
2023/08/22 11:52:42;;;;;;;;;;;26.00;55.90;;;;;;4990473;28;19920;-87
2023/08/22 11:55:09;;;;;;;;;;;26.30;56.30;;;;;;4992284;28;20004;-87
2023/08/22 11:57:35;;;;;;;;;;;26.50;54.80;;;;;;4995915;28;19972;-88
2023/08/22 12:00:03;;;;;;;;;;;26.60;54.10;;;;;;4996598;28;19987;-87
2023/08/22 12:02:29;;;;;;;;;;;26.70;53.30;;;;;;4994186;28;19965;-86
2023/08/22 12:04:55;;;;;;;;;;;26.60;54.20;;;;;;4991896;28;19913;-87
2023/08/22 12:07:23;;;;;;;;;;;26.60;53.50;;;;;;4998284;28;19917;-87
2023/08/22 12:09:58;;;;;;;;;;;26.50;54.30;;;;;;4996186;28;19920;-86
2023/08/22 12:12:24;;;;;;;;;;;26.20;55.00;;;;;;4997283;28;19961;-85
2023/08/22 12:14:49;;;;;;;;;;;26.20;55.70;;;;;;4996765;28;20384;-85
2023/08/22 12:17:15;;;;;;;;;;;26.10;55.90;;;;;;4994027;28;19925;-86
2023/08/22 12:19:42;;;;;;;;;;;26.00;55.70;;;;;;5009060;28;19930;-85
2023/08/22 12:22:07;;;;;;;;;;;26.10;56.60;;;;;;5000177;28;19924;-85
2023/08/22 12:24:33;;;;;;;;;;;26.00;56.40;;;;;;5005560;28;19914;-85
2023/08/22 12:26:58;;;;;;;;;;;26.00;57.40;;;;;;4998068;28;19941;-85
2023/08/22 12:29:23;;;;;;;;;;;26.00;56.60;;;;;;5001590;28;19945;-85
2023/08/22 12:31:49;;;;;;;;;;;25.80;57.00;;;;;;5001323;28;19914;-84
2023/08/22 12:34:14;;;;;;;;;;;25.80;57.70;;;;;;4999936;28;20430;-85
2023/08/22 12:36:40;;;;;;;;;;;25.90;57.60;;;;;;4989999;28;19976;-86
2023/08/22 12:39:06;;;;;;;;;;;25.90;56.90;;;;;;4998258;28;20008;-83
2023/08/22 12:41:31;;;;;;;;;;;26.00;56.10;;;;;;4996520;28;20317;-83
2023/08/22 12:43:57;;;;;;;;;;;25.90;56.30;;;;;;4996955;28;19914;-82
2023/08/22 12:46:22;;;;;;;;;;;26.00;56.00;;;;;;4990399;28;19929;-85
2023/08/22 12:48:47;;;;;;;;;;;25.80;56.50;;;;;;4998033;28;20005;-85
2023/08/22 12:51:13;;;;;;;;;;;25.80;57.00;;;;;;4997171;28;20385;-87
2023/08/22 12:53:38;;;;;;;;;;;26.00;55.60;;;;;;4996199;28;20308;-84
2023/08/22 12:56:04;;;;;;;;;;;26.10;55.50;;;;;;4995475;28;19914;-84
2023/08/22 12:58:30;;;;;;;;;;;26.30;53.90;;;;;;4993632;28;20008;-83
2023/08/22 13:00:56;;;;;;;;;;;26.50;54.80;;;;;;4990570;28;19910;-84
2023/08/22 13:03:21;;;;;;;;;;;26.70;53.40;;;;;;4995345;28;19920;-82
2023/08/22 13:05:47;;;;;;;;;;;26.70;53.20;;;;;;4991243;28;19957;-83
2023/08/22 13:08:12;;;;;;;;;;;26.70;53.20;;;;;;4992590;28;20008;-83
2023/08/22 13:10:38;;;;;;;;;;;26.70;53.90;;;;;;4995765;28;19917;-83
2023/08/22 13:13:03;;;;;;;;;;;26.80;53.60;;;;;;4996611;28;19914;-83
2023/08/22 13:15:29;;;;;;;;;;;26.80;53.30;;;;;;4992432;28;19914;-83
2023/08/22 13:17:54;;;;;;;;;;;26.70;53.90;;;;;;4989541;28;19929;-84
2023/08/22 13:20:21;;;;;;;;;;;26.60;54.70;;;;;;4995234;28;20025;-84
2023/08/22 13:22:47;;;;;;;;;;;26.70;54.50;;;;;;4987639;28;19945;-81
2023/08/22 13:25:13;;;;;;;;;;;26.50;56.50;;;;;;4990899;28;19926;-80
2023/08/22 13:27:39;;;;;;;;;;;26.50;56.10;;;;;;4998588;28;19921;-80
2023/08/22 13:30:05;;;;;;;;;;;26.60;55.80;;;;;;4999080;28;19926;-86
2023/08/22 13:32:31;;;;;;;;;;;26.60;55.20;;;;;;4990945;28;19941;-80
2023/08/22 13:34:56;;;;;;;;;;;26.60;55.50;;;;;;4985510;28;19922;-82
2023/08/22 13:37:24;;;;;;;;;;;26.60;55.20;;;;;;4993271;28;19921;-81
2023/08/22 13:39:50;;;;;;;;;;;26.60;54.80;;;;;;4981547;28;19939;-82
2023/08/22 13:42:15;;;;;;;;;;;26.50;55.20;;;;;;4985446;28;21725;-83
2023/08/22 13:44:41;;;;;;;;;;;26.60;54.70;;;;;;4979749;28;20123;-83
2023/08/22 13:47:06;;;;;;;;;;;26.60;56.00;;;;;;4983780;28;19973;-86
2023/08/22 13:49:32;;;;;;;;;;;26.60;55.90;;;;;;4988912;28;19922;-85
2023/08/22 13:51:58;;;;;;;;;;;26.60;56.00;;;;;;4989023;28;19918;-85
2023/08/22 13:54:24;;;;;;;;;;;26.60;54.80;;;;;;4995384;28;20309;-85
2023/08/22 13:56:49;;;;;;;;;;;26.60;54.50;;;;;;4993945;28;20295;-87
2023/08/22 13:59:15;;;;;;;;;;;26.60;54.50;;;;;;4990036;28;19914;-84
2023/08/22 14:01:41;;;;;;;;;;;26.50;54.80;;;;;;4988752;28;19914;-86
2023/08/22 14:04:06;;;;;;;;;;;26.50;55.10;;;;;;4987869;28;20053;-83
2023/08/22 14:06:32;;;;;;;;;;;26.50;54.80;;;;;;4987425;28;19972;-83
2023/08/22 14:08:58;;;;;;;;;;;26.40;55.40;;;;;;4991721;28;19914;-84